createdAt,value
2023-03-17T00:00:22.369Z,97.58
2023-03-17T00:02:50.654Z,97.29
2023-03-17T00:05:17.891Z,97.30
2023-03-17T00:07:46.708Z,97.36
2023-03-17T00:10:17.519Z,97.23
2023-03-17T00:12:45.660Z,97.38
2023-03-17T00:15:14.930Z,97.28
2023-03-17T00:17:42.375Z,97.28
2023-03-17T00:20:17.587Z,97.26
2023-03-17T00:22:45.449Z,97.45
2023-03-17T00:25:27.355Z,97.54
2023-03-17T00:27:55.501Z,97.66
2023-03-17T00:30:23.320Z,97.56
2023-03-17T00:32:52.835Z,97.70
2023-03-17T00:35:23.981Z,97.73
2023-03-17T00:37:53.603Z,97.72
2023-03-17T00:40:26.629Z,97.79
2023-03-17T00:42:53.708Z,97.86
2023-03-17T00:45:23.502Z,97.91
2023-03-17T00:47:53.365Z,97.99
2023-03-17T00:50:24.435Z,98.16
2023-03-17T00:52:54.300Z,98.09
2023-03-17T00:55:22.366Z,97.95
2023-03-17T00:57:50.425Z,97.83
2023-03-17T01:00:19.442Z,97.90
2023-03-17T01:02:47.511Z,98.14
2023-03-17T01:05:15.071Z,97.95
2023-03-17T01:07:48.007Z,97.72
2023-03-17T01:10:21.170Z,97.71
2023-03-17T01:12:51.253Z,97.67
2023-03-17T01:15:19.943Z,97.56
2023-03-17T01:17:48.010Z,97.61
2023-03-17T01:20:22.822Z,97.90
2023-03-17T01:22:50.630Z,97.62
2023-03-17T01:25:19.355Z,97.30
2023-03-17T01:27:47.509Z,97.32
2023-03-17T01:30:19.579Z,97.24
2023-03-17T01:32:47.303Z,97.08
2023-03-17T01:35:14.713Z,97.02
2023-03-17T01:37:42.336Z,97.10
2023-03-17T01:40:15.481Z,96.96
2023-03-17T01:42:48.085Z,97.07
2023-03-17T01:45:52.713Z,96.89
2023-03-17T01:48:19.960Z,96.84
2023-03-17T01:50:48.408Z,96.83
2023-03-17T01:53:16.450Z,96.53
2023-03-17T01:55:46.001Z,96.42
2023-03-17T01:58:16.151Z,96.48
2023-03-17T02:00:44.096Z,96.37
2023-03-17T02:03:11.684Z,96.37
2023-03-17T02:05:39.669Z,96.46
2023-03-17T02:08:16.625Z,96.28
2023-03-17T02:10:46.066Z,96.07
2023-03-17T02:13:13.845Z,95.90
2023-03-17T02:15:51.764Z,96.24
2023-03-17T02:18:26.061Z,96.20
2023-03-17T02:21:27.323Z,95.90
2023-03-17T02:23:55.683Z,96.07
2023-03-17T02:26:26.047Z,95.63
2023-03-17T02:28:53.764Z,95.55
2023-03-17T02:31:21.337Z,95.75
2023-03-17T02:33:48.355Z,95.75
2023-03-17T02:36:15.776Z,95.81
2023-03-17T02:38:45.283Z,95.84
2023-03-17T02:41:12.251Z,96.03
2023-03-17T02:43:44.897Z,96.07
2023-03-17T02:46:12.663Z,96.11
2023-03-17T02:48:40.194Z,95.95
2023-03-17T02:51:07.569Z,95.97
2023-03-17T02:53:34.544Z,95.91
2023-03-17T02:56:02.282Z,95.63
2023-03-17T02:58:30.484Z,95.59
2023-03-17T03:00:57.920Z,95.66
2023-03-17T03:03:25.105Z,95.65
2023-03-17T03:05:52.005Z,95.44
2023-03-17T03:08:19.219Z,95.50
2023-03-17T03:10:46.859Z,95.39
2023-03-17T03:13:13.959Z,95.31
2023-03-17T03:15:42.724Z,95.12
2023-03-17T03:18:09.977Z,94.94
2023-03-17T03:20:37.091Z,94.61
2023-03-17T03:23:04.375Z,94.66
2023-03-17T03:25:31.551Z,94.48
2023-03-17T03:27:58.484Z,94.50
2023-03-17T03:30:25.647Z,94.54
2023-03-17T03:32:52.823Z,94.71
2023-03-17T03:35:19.923Z,95.20
2023-03-17T03:37:46.854Z,95.42
2023-03-17T03:40:14.341Z,95.64
2023-03-17T03:42:42.087Z,95.68
2023-03-17T03:45:09.811Z,95.81
2023-03-17T03:47:36.951Z,96.00
2023-03-17T03:50:04.049Z,95.90
2023-03-17T03:52:31.176Z,95.93
2023-03-17T03:54:58.185Z,95.76
2023-03-17T03:57:25.387Z,95.68
2023-03-17T03:59:52.290Z,95.95
2023-03-17T04:02:19.593Z,95.71
2023-03-17T04:04:47.051Z,95.59
2023-03-17T04:07:14.310Z,95.54
2023-03-17T04:09:41.547Z,95.46
2023-03-17T04:12:09.005Z,95.23
2023-03-17T04:14:36.583Z,94.69
2023-03-17T04:17:05.273Z,94.62
2023-03-17T04:19:32.409Z,94.66
2023-03-17T04:21:59.712Z,94.57
2023-03-17T04:24:27.888Z,94.31
2023-03-17T04:26:55.204Z,94.46
2023-03-17T04:29:22.035Z,94.67
2023-03-17T04:31:49.124Z,94.79
2023-03-17T04:34:18.029Z,94.58
2023-03-17T04:36:47.213Z,94.37
2023-03-17T04:39:15.701Z,94.32
2023-03-17T04:41:42.669Z,94.38
2023-03-17T04:44:09.631Z,94.14
2023-03-17T04:46:36.830Z,94.11
2023-03-17T04:49:04.447Z,93.95
2023-03-17T04:51:31.290Z,93.80
2023-03-17T04:53:58.148Z,93.84
2023-03-17T04:56:25.276Z,93.72
2023-03-17T04:58:52.455Z,93.91
2023-03-17T05:01:19.756Z,93.79
2023-03-17T05:03:46.658Z,93.74
2023-03-17T05:06:14.134Z,93.48
2023-03-17T05:08:41.258Z,93.67
2023-03-17T05:11:09.483Z,93.24
2023-03-17T05:13:36.522Z,93.22
2023-03-17T05:16:03.790Z,93.07
2023-03-17T05:18:30.978Z,93.00
2023-03-17T05:20:57.907Z,93.08
2023-03-17T05:23:26.512Z,93.11
2023-03-17T05:25:54.062Z,92.88
2023-03-17T05:28:25.558Z,92.96
2023-03-17T05:30:54.500Z,92.86
2023-03-17T05:33:21.886Z,92.52
2023-03-17T05:35:49.079Z,92.27
2023-03-17T05:38:16.413Z,92.47
2023-03-17T05:40:44.036Z,92.27
2023-03-17T05:43:11.574Z,91.99
2023-03-17T05:45:39.207Z,92.04
2023-03-17T05:48:06.513Z,91.80
2023-03-17T05:50:33.714Z,91.75
2023-03-17T05:53:01.012Z,91.67
2023-03-17T05:55:28.137Z,91.73
2023-03-17T05:57:55.057Z,91.58
2023-03-17T06:00:23.168Z,90.73
2023-03-17T06:02:50.414Z,90.63
2023-03-17T06:05:17.609Z,90.44
2023-03-17T06:07:54.029Z,89.94
2023-03-17T06:10:24.430Z,90.07
2023-03-17T06:12:51.566Z,90.03
2023-03-17T06:15:19.744Z,89.98
2023-03-17T06:17:46.839Z,90.22
2023-03-17T06:20:14.624Z,90.18
2023-03-17T06:23:00.369Z,90.12
2023-03-17T06:25:30.221Z,90.16
2023-03-17T06:27:57.848Z,89.68
2023-03-17T06:30:24.916Z,89.35
2023-03-17T06:32:51.902Z,88.68
2023-03-17T06:35:18.907Z,88.96
2023-03-17T06:37:46.135Z,88.21
2023-03-17T06:40:13.866Z,87.23
2023-03-17T06:42:41.329Z,86.71
2023-03-17T06:45:09.439Z,85.76
2023-03-17T06:47:37.299Z,85.09
2023-03-17T06:50:05.918Z,84.73
2023-03-17T06:52:33.211Z,84.67
2023-03-17T06:55:00.124Z,83.82
2023-03-17T06:57:27.068Z,83.40
2023-03-17T07:03:22.527Z,81.65
2023-03-17T07:05:49.366Z,81.48
2023-03-17T07:08:17.164Z,81.83
2023-03-17T07:10:44.371Z,81.54
2023-03-17T07:13:12.234Z,81.25
2023-03-17T07:15:39.195Z,80.06
2023-03-17T07:18:07.232Z,79.84
2023-03-17T07:20:34.140Z,79.75
2023-03-17T07:23:01.337Z,79.70
2023-03-17T07:25:30.292Z,79.63
2023-03-17T07:27:58.557Z,79.22
2023-03-17T07:30:26.840Z,78.65
2023-03-17T07:32:54.190Z,78.89
2023-03-17T07:35:21.358Z,78.64
2023-03-17T07:37:49.787Z,77.37
2023-03-17T07:40:18.604Z,77.47
2023-03-17T07:42:45.550Z,76.34
2023-03-17T07:45:12.928Z,75.44
2023-03-17T07:47:40.270Z,75.88
2023-03-17T07:50:07.854Z,75.46
2023-03-17T07:52:34.888Z,75.53
2023-03-17T07:55:02.675Z,75.91
2023-03-17T07:57:30.100Z,75.72
2023-03-17T07:59:57.013Z,76.03
2023-03-17T08:02:24.487Z,74.72
2023-03-17T08:04:51.732Z,74.15
2023-03-17T08:07:18.822Z,73.15
2023-03-17T08:09:46.620Z,73.86
2023-03-17T08:12:14.676Z,73.66
2023-03-17T08:14:41.771Z,71.99
2023-03-17T08:17:08.971Z,72.01
2023-03-17T08:19:36.301Z,72.31
2023-03-17T08:22:03.434Z,72.63
2023-03-17T08:24:30.539Z,72.18
2023-03-17T08:26:59.722Z,72.54
2023-03-17T08:29:30.556Z,72.37
2023-03-17T08:31:57.716Z,71.62
2023-03-17T08:34:26.204Z,72.08
2023-03-17T08:36:53.459Z,71.79
2023-03-17T08:39:20.784Z,72.15
2023-03-17T08:41:47.772Z,72.12
2023-03-17T08:44:15.092Z,71.19
2023-03-17T08:46:42.701Z,70.36
2023-03-17T08:49:10.900Z,70.14
2023-03-17T08:51:38.745Z,69.69
2023-03-17T08:54:06.987Z,69.14
2023-03-17T08:56:34.660Z,68.78
2023-03-17T08:59:02.444Z,68.25
2023-03-17T09:01:29.528Z,67.22
2023-03-17T09:03:56.625Z,66.66
2023-03-17T09:06:23.756Z,67.09
2023-03-17T09:08:55.416Z,67.89
2023-03-17T09:11:30.315Z,68.17
2023-03-17T09:13:57.552Z,67.85
2023-03-17T09:16:24.960Z,66.04
2023-03-17T09:18:52.323Z,66.22
2023-03-17T09:21:19.616Z,66.35
2023-03-17T09:23:46.971Z,66.19
2023-03-17T09:26:14.071Z,66.22
2023-03-17T09:28:41.821Z,65.73
2023-03-17T09:31:12.375Z,64.67
2023-03-17T09:33:40.764Z,64.59
2023-03-17T09:36:09.032Z,64.09
2023-03-17T09:38:37.240Z,63.79
2023-03-17T09:41:49.816Z,62.95
2023-03-17T09:44:21.999Z,61.78
2023-03-17T09:46:58.011Z,60.46
2023-03-17T09:49:36.475Z,61.48
2023-03-17T09:52:04.408Z,62.53
2023-03-17T09:54:34.959Z,61.96
2023-03-17T09:57:32.572Z,60.10
2023-03-17T10:00:23.144Z,60.56
2023-03-17T10:02:50.511Z,61.47
2023-03-17T10:05:17.381Z,62.09
2023-03-17T10:07:50.813Z,61.55
2023-03-17T10:10:37.274Z,60.40
2023-03-17T10:13:04.149Z,59.85
2023-03-17T10:15:50.857Z,60.18
2023-03-17T10:18:19.264Z,59.18
2023-03-17T10:21:11.005Z,58.36
2023-03-17T10:23:37.967Z,59.14
2023-03-17T10:26:24.868Z,59.60
2023-03-17T10:28:55.201Z,59.84
2023-03-17T10:31:33.413Z,58.20
2023-03-17T10:34:13.875Z,58.17
2023-03-17T10:36:44.733Z,57.96
2023-03-17T10:39:17.543Z,56.83
2023-03-17T10:42:11.338Z,56.84
2023-03-17T10:44:50.958Z,57.57
2023-03-17T10:47:24.201Z,56.48
2023-03-17T10:49:53.632Z,55.14
2023-03-17T10:52:27.925Z,54.28
2023-03-17T10:54:55.150Z,54.13
2023-03-17T10:57:23.083Z,54.58
2023-03-17T10:59:53.760Z,56.51
2023-03-17T11:02:26.728Z,56.36
2023-03-17T11:05:04.333Z,56.98
2023-03-17T11:07:38.838Z,56.58
2023-03-17T11:10:26.239Z,55.47
2023-03-17T11:13:03.813Z,55.88
2023-03-17T11:15:56.535Z,55.17
2023-03-17T11:18:29.743Z,53.89
2023-03-17T11:21:16.071Z,54.03
2023-03-17T11:23:55.667Z,52.58
2023-03-17T11:26:37.645Z,53.25
2023-03-17T11:29:43.404Z,53.23
2023-03-17T11:32:33.523Z,54.98
2023-03-17T11:35:14.204Z,55.15
2023-03-17T11:38:07.637Z,54.78
2023-03-17T11:40:40.313Z,53.98
2023-03-17T11:43:29.165Z,53.50
2023-03-17T11:46:19.356Z,53.61
2023-03-17T11:49:08.268Z,53.29
2023-03-17T11:52:17.345Z,52.83
2023-03-17T11:55:38.744Z,52.27
2023-03-17T11:58:11.574Z,53.62
2023-03-17T12:00:51.470Z,51.88
2023-03-17T12:03:48.727Z,53.13
2023-03-17T12:06:29.718Z,51.82
2023-03-17T12:09:08.501Z,52.32
2023-03-17T12:11:38.895Z,47.64
2023-03-17T12:14:14.069Z,51.24
2023-03-17T12:17:05.528Z,50.60
2023-03-17T12:20:02.843Z,51.46
2023-03-17T12:22:38.032Z,51.28
2023-03-17T12:25:11.489Z,50.99
2023-03-17T12:27:58.451Z,50.95
2023-03-17T12:30:55.749Z,52.22
2023-03-17T12:33:38.741Z,51.32
2023-03-17T12:36:08.066Z,51.82
2023-03-17T12:38:35.846Z,54.55
2023-03-17T12:41:18.289Z,54.58
2023-03-17T12:44:14.503Z,52.27
2023-03-17T12:47:19.045Z,51.97
2023-03-17T12:50:05.128Z,53.16
2023-03-17T12:52:35.498Z,52.62
2023-03-17T12:55:05.095Z,53.28
2023-03-17T12:57:39.997Z,52.44
2023-03-17T13:00:25.516Z,53.89
2023-03-17T13:03:13.400Z,53.32
2023-03-17T13:05:47.040Z,53.67
2023-03-17T13:08:24.035Z,53.94
2023-03-17T13:10:51.347Z,54.74
2023-03-17T13:13:53.720Z,57.01
2023-03-17T13:16:29.655Z,56.88
2023-03-17T13:19:19.161Z,56.29
2023-03-17T13:22:00.895Z,55.69
2023-03-17T13:24:42.570Z,54.75
2023-03-17T13:27:12.981Z,53.10
2023-03-17T13:29:44.293Z,53.48
2023-03-17T13:32:17.713Z,51.61
2023-03-17T13:34:48.769Z,50.89
2023-03-17T13:37:29.672Z,51.71
2023-03-17T13:39:56.496Z,49.72
2023-03-17T13:42:45.921Z,52.48
2023-03-17T13:45:32.681Z,50.63
2023-03-17T13:48:25.197Z,52.10
2023-03-17T13:51:19.326Z,52.58
2023-03-17T13:53:59.157Z,54.55
2023-03-17T13:56:39.604Z,52.51
2023-03-17T13:59:42.924Z,53.96
2023-03-17T14:02:18.453Z,54.86
2023-03-17T14:04:53.651Z,54.17
2023-03-17T14:07:24.596Z,55.75
2023-03-17T14:09:57.513Z,55.18
2023-03-17T14:12:46.868Z,56.58
2023-03-17T14:15:21.977Z,56.58
2023-03-17T14:17:56.278Z,58.33
2023-03-17T14:20:27.102Z,57.96
2023-03-17T14:23:01.665Z,58.60
2023-03-17T14:25:35.138Z,58.58
2023-03-17T14:28:09.379Z,57.79
2023-03-17T14:30:38.844Z,58.14
2023-03-17T14:33:20.527Z,58.32
2023-03-17T14:35:50.984Z,57.56
2023-03-17T14:38:24.228Z,56.35
2023-03-17T14:41:05.164Z,58.22
2023-03-17T14:43:34.119Z,58.64
2023-03-17T14:46:25.936Z,58.54
2023-03-17T14:49:14.078Z,57.17
2023-03-17T14:51:42.190Z,57.92
2023-03-17T14:54:22.645Z,55.92
2023-03-17T14:56:53.042Z,56.50
2023-03-17T14:59:28.917Z,57.49
2023-03-17T15:01:58.532Z,58.54
2023-03-17T15:04:27.565Z,58.06
2023-03-17T15:07:00.131Z,57.64
2023-03-17T15:09:33.568Z,57.83
2023-03-17T15:12:24.793Z,58.75
2023-03-17T15:14:54.510Z,57.71
2023-03-17T15:17:29.482Z,56.77
2023-03-17T15:20:04.920Z,56.80
2023-03-17T15:22:44.485Z,57.45
2023-03-17T15:25:37.281Z,57.14
2023-03-17T15:28:16.005Z,58.00
2023-03-17T15:30:48.465Z,59.12
2023-03-17T15:33:37.033Z,57.36
2023-03-17T15:36:05.828Z,58.08
2023-03-17T15:38:33.741Z,58.65
2023-03-17T15:41:00.858Z,58.71
2023-03-17T15:43:27.765Z,59.64
2023-03-17T15:46:00.775Z,59.10
2023-03-17T15:48:31.628Z,60.07
2023-03-17T15:51:00.291Z,60.12
2023-03-17T15:53:27.689Z,59.80
2023-03-17T15:55:54.907Z,60.42
2023-03-17T15:58:22.091Z,60.35
2023-03-17T16:00:57.093Z,60.79
2023-03-17T16:03:36.207Z,60.91
2023-03-17T16:06:07.402Z,60.19
2023-03-17T16:08:34.768Z,59.66
2023-03-17T16:11:03.463Z,60.20
2023-03-17T16:13:30.596Z,59.25
2023-03-17T16:16:00.325Z,61.25
2023-03-17T16:18:37.680Z,61.75
2023-03-17T16:21:05.392Z,62.45
2023-03-17T16:23:37.013Z,62.54
2023-03-17T16:26:14.726Z,62.09
2023-03-17T16:28:44.931Z,62.86
2023-03-17T16:31:22.214Z,61.70
2023-03-17T16:33:50.702Z,62.46
2023-03-17T16:36:19.866Z,64.09
2023-03-17T16:38:47.704Z,64.00
2023-03-17T16:41:19.229Z,65.00
2023-03-17T16:43:51.179Z,64.33
2023-03-17T16:46:20.661Z,64.77
2023-03-17T16:48:48.508Z,65.31
2023-03-17T16:51:18.565Z,65.51
2023-03-17T16:53:49.515Z,66.02
2023-03-17T16:56:21.580Z,67.77
2023-03-17T16:58:49.687Z,68.04
2023-03-17T17:01:23.483Z,68.28
2023-03-17T17:03:50.827Z,67.51
2023-03-17T17:06:19.441Z,67.44
2023-03-17T17:08:48.054Z,65.27
2023-03-17T17:11:16.849Z,66.31
2023-03-17T17:13:46.192Z,67.33
2023-03-17T17:16:33.899Z,68.52
2023-03-17T17:19:02.004Z,68.82
2023-03-17T17:21:29.437Z,69.84
2023-03-17T17:23:56.638Z,71.17
2023-03-17T17:26:23.540Z,72.41
2023-03-17T17:28:50.599Z,71.62
2023-03-17T17:31:18.329Z,71.96
2023-03-17T17:33:48.013Z,72.37
2023-03-17T17:36:19.933Z,72.96
2023-03-17T17:38:46.940Z,73.84
2023-03-17T17:41:14.886Z,74.63
2023-03-17T17:43:42.064Z,75.59
2023-03-17T17:46:17.212Z,75.77
2023-03-17T17:48:56.306Z,75.86
2023-03-17T17:51:31.147Z,75.96
2023-03-17T17:53:59.261Z,75.65
2023-03-17T17:56:42.075Z,76.21
2023-03-17T17:59:09.962Z,75.98
2023-03-17T18:01:40.992Z,76.33
2023-03-17T18:04:23.336Z,76.66
2023-03-17T18:07:10.818Z,77.02
2023-03-17T18:09:43.639Z,76.76
2023-03-17T18:12:11.060Z,77.14
2023-03-17T18:14:39.226Z,77.22
2023-03-17T18:17:07.754Z,78.40
2023-03-17T18:19:35.291Z,78.75
2023-03-17T18:22:02.459Z,79.24
2023-03-17T18:24:30.149Z,79.82
2023-03-17T18:27:00.633Z,79.98
2023-03-17T18:29:31.512Z,80.33
2023-03-17T18:32:08.431Z,80.75
2023-03-17T18:34:44.348Z,81.40
2023-03-17T18:37:15.063Z,81.57
2023-03-17T18:40:09.723Z,81.53
2023-03-17T18:42:37.498Z,81.98
2023-03-17T18:45:08.675Z,82.03
2023-03-17T18:47:37.808Z,82.18
2023-03-17T18:50:07.132Z,82.03
2023-03-17T18:52:36.453Z,82.22
2023-03-17T18:55:04.578Z,82.92
2023-03-17T18:57:32.224Z,83.61
2023-03-17T18:59:59.165Z,83.92
2023-03-17T19:02:26.285Z,84.19
2023-03-17T19:04:53.298Z,84.03
2023-03-17T19:07:22.246Z,84.18
2023-03-17T19:09:49.448Z,83.97
2023-03-17T19:12:16.940Z,84.35
2023-03-17T19:14:45.129Z,84.77
2023-03-17T19:17:12.393Z,84.83
2023-03-17T19:19:41.346Z,84.80
2023-03-17T19:22:08.459Z,84.72
2023-03-17T19:24:36.239Z,84.84
2023-03-17T19:27:04.882Z,84.81
2023-03-17T19:29:32.883Z,84.77
2023-03-17T19:32:00.558Z,85.22
2023-03-17T19:34:27.996Z,85.12
2023-03-17T19:36:55.651Z,85.19
2023-03-17T19:39:22.761Z,85.28
2023-03-17T19:41:53.230Z,85.53
2023-03-17T19:44:20.349Z,85.43
2023-03-17T19:46:47.756Z,85.67
2023-03-17T19:49:14.975Z,86.18
2023-03-17T19:51:42.520Z,86.42
2023-03-17T19:54:11.403Z,86.68
2023-03-17T19:56:59.181Z,86.53
2023-03-17T19:59:28.268Z,86.43
2023-03-17T20:01:55.639Z,86.50
2023-03-17T20:04:23.334Z,86.81
2023-03-17T20:06:55.669Z,87.05
2023-03-17T20:09:26.064Z,87.31
2023-03-17T20:11:54.365Z,87.36
2023-03-17T20:14:21.507Z,87.62
2023-03-17T20:16:49.093Z,87.34
2023-03-17T20:19:16.873Z,87.39
2023-03-17T20:21:43.869Z,87.56
2023-03-17T20:24:14.703Z,87.57
2023-03-17T20:26:43.470Z,87.81
2023-03-17T20:29:13.440Z,87.98
2023-03-17T20:31:42.156Z,88.27
2023-03-17T20:34:18.136Z,88.27
2023-03-17T20:36:46.265Z,88.29
2023-03-17T20:39:19.640Z,88.31
2023-03-17T20:41:51.568Z,88.50
2023-03-17T20:44:19.657Z,88.53
2023-03-17T20:46:47.787Z,88.50
2023-03-17T20:49:17.339Z,88.37
2023-03-17T20:51:44.553Z,88.75
2023-03-17T20:54:11.449Z,88.80
2023-03-17T20:56:39.761Z,89.39
2023-03-17T20:59:09.671Z,89.58
2023-03-17T21:01:38.713Z,89.80
2023-03-17T21:04:09.022Z,90.08
2023-03-17T21:06:37.558Z,90.36
2023-03-17T21:09:05.338Z,90.31
2023-03-17T21:11:32.317Z,90.63
2023-03-17T21:13:59.456Z,90.41
2023-03-17T21:16:28.439Z,90.89
2023-03-17T21:18:56.100Z,90.43
2023-03-17T21:21:23.141Z,90.60
2023-03-17T21:23:51.424Z,90.96
2023-03-17T21:26:20.365Z,91.24
2023-03-17T21:28:48.866Z,91.30
2023-03-17T21:31:21.225Z,91.50
2023-03-17T21:33:50.485Z,91.68
2023-03-17T21:36:17.920Z,91.64
2023-03-17T21:38:45.595Z,91.69
2023-03-17T21:41:33.715Z,91.92
2023-03-17T21:44:01.690Z,91.96
2023-03-17T21:46:29.562Z,91.93
2023-03-17T21:49:11.421Z,91.94
2023-03-17T21:51:38.519Z,91.97
2023-03-17T21:54:05.876Z,92.20
2023-03-17T21:56:33.549Z,92.57
2023-03-17T21:59:00.799Z,92.77
2023-03-17T22:01:28.135Z,92.75
2023-03-17T22:03:55.433Z,92.94
2023-03-17T22:06:22.761Z,93.00
2023-03-17T22:08:50.645Z,93.06
2023-03-17T22:11:19.542Z,92.87
2023-03-17T22:13:47.790Z,93.25
2023-03-17T22:16:16.181Z,93.21
2023-03-17T22:18:43.317Z,93.34
2023-03-17T22:21:10.966Z,93.49
2023-03-17T22:23:42.317Z,93.72
2023-03-17T22:26:12.533Z,93.56
2023-03-17T22:28:40.816Z,93.74
2023-03-17T22:31:24.321Z,93.97
2023-03-17T22:33:55.332Z,93.97
2023-03-17T22:36:24.193Z,94.12
2023-03-17T22:38:51.626Z,94.03
2023-03-17T22:41:21.915Z,94.07
2023-03-17T22:43:49.237Z,93.97
2023-03-17T22:46:17.718Z,93.94
2023-03-17T22:48:46.245Z,94.06
2023-03-17T22:51:19.467Z,94.15
2023-03-17T22:53:47.808Z,94.24
2023-03-17T22:56:16.432Z,94.46
2023-03-17T22:58:44.633Z,94.76
2023-03-17T23:01:13.477Z,94.75
2023-03-17T23:03:40.921Z,94.81
2023-03-17T23:06:08.713Z,94.90
2023-03-17T23:08:39.059Z,95.03
2023-03-17T23:11:08.765Z,95.09
2023-03-17T23:13:36.755Z,95.10
2023-03-17T23:16:04.817Z,95.35
2023-03-17T23:18:32.432Z,95.09
2023-03-17T23:21:00.221Z,95.01
2023-03-17T23:23:27.581Z,95.06
2023-03-17T23:25:54.516Z,95.11
2023-03-17T23:28:21.755Z,95.35
2023-03-17T23:30:48.839Z,95.47
2023-03-17T23:33:17.511Z,95.57
2023-03-17T23:35:46.142Z,95.71
2023-03-17T23:38:13.828Z,95.75
2023-03-17T23:40:41.302Z,95.79
2023-03-17T23:43:08.425Z,95.81
2023-03-17T23:45:35.482Z,96.10
2023-03-17T23:48:04.323Z,95.98
2023-03-17T23:50:32.145Z,95.96
2023-03-17T23:52:59.314Z,95.97
2023-03-17T23:55:26.211Z,96.26
2023-03-17T23:57:53.317Z,96.42
